This demonstration page uses our WeatherBlox Daily Observations layout. Learn more.

Hourly Observations for October 14, 2019

Temp ( °F °C ) Dew Point ( °F °C ) Humidity (%) Winds ( mph kmh ) Pressure ( in mb ) Visibility ( mi km ) Precip ( " mm )
12:54 am 00:54 Clear 32 0 27 -2.8 82 82 N 7 11 30.03 1017 10 16.09344 0 0
1:54 am 01:54 Clear 35 1.7 29 -1.7 78 78 NNW 6 9 30.03 1017 10 16.09344 0 0
2:54 am 02:54 Clear 31 -0.6 27 -2.8 85 85 N 5 7 30.03 1017 10 16.09344 0 0
3:54 am 03:54 Clear 30 -1.1 27 -2.8 88 88 NNW 5 7 30.03 1017 10 16.09344 0 0
4:54 am 04:54 Clear 33 0.6 28 -2.2 82 82 WSW 3 6 30.03 1017 10 16.09344 0 0
5:54 am 05:54 Clear 32 0 27 -2.8 82 82 Calm 30.03 1017 10 16.09344 0 0
6:54 am 06:54 Clear 31 -0.6 27 -2.8 85 85 NNW 5 7 30.03 1017 10 16.09344 0 0
7:54 am 07:54 Sunny 30 -1.1 26 -3.3 85 85 N 5 7 30.03 1017 10 16.09344 0 0
8:54 am 08:54 Sunny 38 3.3 32 0 79 79 undefined N/A 30.03 1017 10 16.09344 0 0
9:29 am 09:29 Sunny 41 5 33 0.6 73 73 Calm 30.06 1018 10 16.09344 0 0
9:54 am 09:54 Sunny 44 6.7 34 1.1 68 68 Calm 30 1016 10 16.09344 0 0
10:54 am 10:54 Sunny 55 12.8 36 2.2 49 49 SSE 9 15 30 1016 10 16.09344 0 0
11:54 am 11:54 Sunny 61 16.1 39 3.9 44 44 SSE 12 19 29.94 1014 10 16.09344 0 0
12:54 pm 12:54 Sunny 66 18.9 41 5 40 40 SE 13 20 29.91 1013 10 16.09344 0 0
1:54 pm 13:54 Sunny 70 21.1 44 6.7 39 39 SE 8 13 29.85 1011 10 16.09344 0 0
2:24 pm 14:24 Sunny 74 23.3 45 7.2 36 36 S 18 30 29.8 1009 10 16.09344 0 0
2:54 pm 14:54 Sunny 75 23.9 46 7.8 36 36 S 21 33 29.8 1009 10 16.09344 0 0
3:54 pm 15:54 Sunny 76 24.4 46 7.8 35 35 S 20 31 29.8 1009 10 16.09344 0 0
4:54 pm 16:54 Sunny 74 23.3 47 8.3 38 38 S 21 33 29.8 1009 10 16.09344 0 0
5:54 pm 17:54 Sunny 72 22.2 46 7.8 40 40 S 15 24 29.8 1009 10 16.09344 0 0
6:54 pm 18:54 Clear 63 17.2 47 8.3 56 56 SSE 10 17 29.8 1009 10 16.09344 0 0
7:54 pm 19:54 Clear 61 16.1 47 8.3 60 60 S 9 15 29.8 1009 10 16.09344 0 0
8:54 pm 20:54 Clear 61 16.1 48 8.9 63 63 S 12 19 29.8 1009 10 16.09344 0 0
9:54 pm 21:54 Clear 57 13.9 47 8.3 69 69 S 8 13 29.8 1009 10 16.09344 0 0
10:54 pm 22:54 Clear 54 12.2 47 8.3 77 77 S 9 15 29.77 1008 10 16.09344 0 0
11:54 pm 23:54 Clear 55 12.8 47 8.3 74 74 S 6 9 29.77 1008 10 16.09344 0 0

Powered by AerisWeather